Time;durP1;ratioP1;P1;durP2;ratioP2;P2;SDS_P1;SDS_P2;PMS_P1;PMS_P2;Temp;Humidity;BMP_temperature;BMP_pressure;BME280_temperature;BME280_humidity;BME280_pressure;Samples;Min_cycle;Max_cycle;Signal;HPM_P1;HPM_P2
2021/10/25 00:01:28;;;;;;;15.15;7.68;;;;;;;;;;5017235;28;20026;-83
2021/10/25 00:03:54;;;;;;;13.40;7.65;;;;;;;;;;5000072;28;20026;-83
2021/10/25 00:06:21;;;;;;;12.35;6.85;;;;;;;;;;4999972;28;20030;-83
2021/10/25 00:08:47;;;;;;;14.68;7.60;;;;;;;;;;4999725;28;20336;-83
2021/10/25 00:11:13;;;;;;;12.45;7.22;;;;;;;;;;5017481;28;20044;-83
2021/10/25 00:13:40;;;;;;;15.82;7.57;;;;;;;;;;4999362;28;20132;-83
2021/10/25 00:16:12;;;;;;;12.73;7.63;;;;;;;;;;5017411;28;20333;-83
2021/10/25 00:18:38;;;;;;;20.00;8.23;;;;;;;;;;5017374;28;20051;-83
2021/10/25 00:21:04;;;;;;;17.00;8.57;;;;;;;;;;4999832;28;20057;-83
2021/10/25 00:23:30;;;;;;;13.85;8.40;;;;;;;;;;5017264;28;20022;-83
2021/10/25 00:25:57;;;;;;;17.40;9.55;;;;;;;;;;5019061;28;20018;-83
2021/10/25 00:28:23;;;;;;;19.35;10.35;;;;;;;;;;5021154;28;20474;-83
2021/10/25 00:30:49;;;;;;;20.98;11.80;;;;;;;;;;5021312;28;20037;-83
2021/10/25 00:33:15;;;;;;;20.55;11.75;;;;;;;;;;5021312;28;20026;-83
2021/10/25 00:35:41;;;;;;;24.38;13.02;;;;;;;;;;5021213;28;20125;-83
2021/10/25 00:38:07;;;;;;;24.50;13.18;;;;;;;;;;5020884;28;20033;-83
2021/10/25 00:40:34;;;;;;;23.13;12.15;;;;;;;;;;5003443;28;20408;-83
2021/10/25 00:43:00;;;;;;;19.23;11.38;;;;;;;;;;5020949;28;20044;-84
2021/10/25 00:45:26;;;;;;;20.50;10.82;;;;;;;;;;5020830;28;20033;-83
2021/10/25 00:47:52;;;;;;;18.17;10.73;;;;;;;;;;5020852;28;20034;-83
2021/10/25 00:50:18;;;;;;;18.38;11.23;;;;;;;;;;5021140;28;20026;-84
2021/10/25 00:52:44;;;;;;;20.88;11.90;;;;;;;;;;5003320;28;20323;-83
2021/10/25 00:55:13;;;;;;;20.55;10.77;;;;;;;;;;5021011;28;20026;-83
2021/10/25 00:57:39;;;;;;;18.92;10.30;;;;;;;;;;5020976;28;20348;-84
2021/10/25 01:00:07;;;;;;;17.73;10.40;;;;;;;;;;5020882;28;20091;-84
2021/10/25 01:05:37;;;;;;;15.25;9.85;;;;;;;;;;5020989;28;20065;-85
2021/10/25 01:08:03;;;;;;;17.45;9.90;;;;;;;;;;5020764;28;20026;-85
2021/10/25 01:10:30;;;;;;;17.13;9.73;;;;;;;;;;5003289;28;20029;-85
2021/10/25 01:12:57;;;;;;;16.90;10.32;;;;;;;;;;5020914;28;20045;-85
2021/10/25 01:15:23;;;;;;;16.35;9.35;;;;;;;;;;5020678;28;20397;-84
2021/10/25 01:20:53;;;;;;;21.45;10.10;;;;;;;;;;5020663;28;20057;-83
2021/10/25 01:23:20;;;;;;;16.73;9.32;;;;;;;;;;5020151;28;20030;-84
2021/10/25 01:25:46;;;;;;;20.42;9.88;;;;;;;;;;5002588;28;20029;-84
2021/10/25 01:28:13;;;;;;;19.60;10.50;;;;;;;;;;5020216;28;20033;-84
2021/10/25 01:30:39;;;;;;;20.30;9.57;;;;;;;;;;5020498;28;20309;-84
2021/10/25 01:33:09;;;;;;;19.60;9.68;;;;;;;;;;5002463;28;20030;-84
2021/10/25 01:35:36;;;;;;;17.80;9.85;;;;;;;;;;5019933;28;20383;-83
2021/10/25 01:38:02;;;;;;;23.30;10.63;;;;;;;;;;5019350;28;20030;-84
2021/10/25 01:40:28;;;;;;;16.48;10.02;;;;;;;;;;5020201;28;20050;-84
2021/10/25 01:42:55;;;;;;;29.08;10.50;;;;;;;;;;5020081;28;20362;-84
2021/10/25 01:45:21;;;;;;;18.35;10.32;;;;;;;;;;5019825;28;20117;-84
2021/10/25 01:48:07;;;;;;;26.17;10.75;;;;;;;;;;5019736;28;20030;-84
2021/10/25 01:50:33;;;;;;;22.58;10.35;;;;;;;;;;5019740;28;20045;-83
2021/10/25 01:53:03;;;;;;;24.05;11.20;;;;;;;;;;5019750;28;20026;-83
2021/10/25 01:55:29;;;;;;;21.30;11.52;;;;;;;;;;5019972;28;20379;-83
2021/10/25 01:57:56;;;;;;;18.73;11.68;;;;;;;;;;5019597;28;20050;-84
2021/10/25 02:00:23;;;;;;;25.08;12.15;;;;;;;;;;5002122;28;20032;-84
2021/10/25 02:02:49;;;;;;;23.08;11.65;;;;;;;;;;5019440;28;20021;-83
2021/10/25 02:05:15;;;;;;;24.10;12.13;;;;;;;;;;5002128;28;20026;-84
2021/10/25 02:07:44;;;;;;;19.98;11.93;;;;;;;;;;5002202;28;20113;-84
2021/10/25 02:10:11;;;;;;;21.02;12.23;;;;;;;;;;5001971;28;20049;-84
2021/10/25 02:12:37;;;;;;;22.52;12.02;;;;;;;;;;5019247;28;20105;-84
2021/10/25 02:15:03;;;;;;;21.83;12.63;;;;;;;;;;5001910;28;20045;-84
2021/10/25 02:17:29;;;;;;;21.75;11.43;;;;;;;;;;5001757;28;20037;-84
2021/10/25 02:19:56;;;;;;;21.15;12.48;;;;;;;;;;5019579;28;20479;-84
2021/10/25 02:22:23;;;;;;;22.98;11.77;;;;;;;;;;5019072;28;20026;-84
2021/10/25 02:24:52;;;;;;;19.85;12.02;;;;;;;;;;5019399;28;20025;-84
2021/10/25 02:27:18;;;;;;;22.40;12.75;;;;;;;;;;5018780;28;20029;-84
2021/10/25 02:29:44;;;;;;;20.55;12.73;;;;;;;;;;5001754;28;20408;-84
2021/10/25 02:32:29;;;;;;;20.13;12.55;;;;;;;;;;5019181;28;20030;-83
2021/10/25 02:34:55;;;;;;;25.80;12.95;;;;;;;;;;5019011;28;20029;-83
2021/10/25 02:37:21;;;;;;;23.63;13.20;;;;;;;;;;5001561;28;20049;-84
2021/10/25 02:39:47;;;;;;;21.73;12.55;;;;;;;;;;5019098;28;20053;-83
2021/10/25 02:42:16;;;;;;;21.15;12.32;;;;;;;;;;5001340;28;20429;-83
2021/10/25 02:44:43;;;;;;;21.88;12.55;;;;;;;;;;5018849;28;20026;-83
2021/10/25 02:50:15;;;;;;;20.90;11.48;;;;;;;;;;5018622;28;20037;-84
2021/10/25 02:52:41;;;;;;;17.98;10.63;;;;;;;;;;5018874;28;20033;-85
2021/10/25 02:55:08;;;;;;;20.17;11.43;;;;;;;;;;5019019;28;20034;-85
2021/10/25 02:57:36;;;;;;;18.75;10.60;;;;;;;;;;5018651;28;20105;-85
2021/10/25 03:00:04;;;;;;;23.63;11.32;;;;;;;;;;5018600;28;20486;-85
2021/10/25 03:03:08;;;;;;;19.08;11.55;;;;;;;;;;5018215;28;20034;-85
2021/10/25 03:05:34;;;;;;;21.25;11.35;;;;;;;;;;5018395;28;20107;-85
2021/10/25 03:08:00;;;;;;;20.52;11.60;;;;;;;;;;5018354;28;20030;-85
2021/10/25 03:10:27;;;;;;;19.42;11.40;;;;;;;;;;5018524;28;20107;-86
2021/10/25 03:12:53;;;;;;;24.42;13.05;;;;;;;;;;5018536;28;20401;-85
2021/10/25 03:15:23;;;;;;;28.05;17.95;;;;;;;;;;5018378;28;20037;-84
2021/10/25 03:17:49;;;;;;;27.00;17.27;;;;;;;;;;5018386;28;20049;-85
2021/10/25 03:20:16;;;;;;;23.65;15.07;;;;;;;;;;5018353;28;20105;-82
2021/10/25 03:22:42;;;;;;;23.33;13.00;;;;;;;;;;5018022;28;20301;-83
2021/10/25 03:25:09;;;;;;;24.58;12.75;;;;;;;;;;5018359;28;20029;-84
2021/10/25 03:27:36;;;;;;;19.83;11.98;;;;;;;;;;5017899;28;20033;-83
2021/10/25 03:30:02;;;;;;;23.95;12.70;;;;;;;;;;5000498;28;20034;-83
2021/10/25 03:32:28;;;;;;;21.48;12.23;;;;;;;;;;5000307;28;20057;-84
2021/10/25 03:34:54;;;;;;;20.27;11.98;;;;;;;;;;5017685;28;20030;-84
2021/10/25 03:37:20;;;;;;;21.73;13.05;;;;;;;;;;5017832;28;20030;-84
2021/10/25 03:39:49;;;;;;;23.77;12.98;;;;;;;;;;5000546;28;20431;-84
2021/10/25 03:50:19;;;;;;;35.60;18.20;;;;;;;;;;4957737;29;20027;-84
2021/10/25 03:55:16;;;;;;;34.17;17.95;;;;;;;;;;4957607;29;20322;-84
2021/10/25 04:28:29;;;;;;;29.50;16.38;;;;;;;;;;4938204;29;20028;-85
2021/10/25 04:30:57;;;;;;;32.22;15.18;;;;;;;;;;4922163;29;20036;-83
2021/10/25 04:33:23;;;;;;;30.42;15.80;;;;;;;;;;4921765;29;20044;-84
2021/10/25 04:35:50;;;;;;;41.50;21.92;;;;;;;;;;4937077;29;20048;-83
2021/10/25 04:38:16;;;;;;;42.30;21.55;;;;;;;;;;4938099;29;20367;-84
2021/10/25 04:40:42;;;;;;;37.15;19.55;;;;;;;;;;4921931;29;20075;-84
2021/10/25 04:43:13;;;;;;;39.15;20.13;;;;;;;;;;4937960;29;20035;-84
2021/10/25 04:45:40;;;;;;;50.22;23.00;;;;;;;;;;4938068;29;20087;-85
2021/10/25 04:48:06;;;;;;;49.42;24.13;;;;;;;;;;4938030;29;20020;-84
2021/10/25 04:50:32;;;;;;;41.90;22.40;;;;;;;;;;4937886;29;20028;-84
2021/10/25 04:52:58;;;;;;;44.50;24.33;;;;;;;;;;4937894;29;20059;-85
2021/10/25 04:55:24;;;;;;;37.33;19.70;;;;;;;;;;4955348;28;20049;-85
2021/10/25 04:57:50;;;;;;;39.50;23.13;;;;;;;;;;5017049;28;20034;-84
2021/10/25 05:00:16;;;;;;;45.25;25.85;;;;;;;;;;5017346;28;20069;-84
2021/10/25 05:02:42;;;;;;;35.90;19.77;;;;;;;;;;4998862;28;20071;-85
2021/10/25 05:05:09;;;;;;;26.80;15.15;;;;;;;;;;4999305;28;20053;-84
2021/10/25 05:07:35;;;;;;;25.52;14.93;;;;;;;;;;4999012;28;20352;-84
2021/10/25 05:10:04;;;;;;;22.67;13.40;;;;;;;;;;5016834;28;20038;-84
2021/10/25 05:12:31;;;;;;;28.90;14.73;;;;;;;;;;5017523;28;20034;-84
2021/10/25 05:14:57;;;;;;;26.48;14.32;;;;;;;;;;5020114;28;20079;-84
2021/10/25 05:17:23;;;;;;;29.30;14.20;;;;;;;;;;5020399;28;20022;-84
2021/10/25 05:19:49;;;;;;;36.08;18.08;;;;;;;;;;5020675;28;20030;-84
2021/10/25 05:22:15;;;;;;;26.13;15.05;;;;;;;;;;5019565;28;20037;-85
2021/10/25 05:24:42;;;;;;;26.90;15.35;;;;;;;;;;5040067;28;20109;-85
2021/10/25 05:27:10;;;;;;;27.67;15.70;;;;;;;;;;5040058;28;20025;-84
2021/10/25 05:29:37;;;;;;;30.77;16.92;;;;;;;;;;5022331;28;20033;-85
2021/10/25 05:35:06;;;;;;;76.13;37.85;;;;;;;;;;5040234;28;20363;-85
2021/10/25 05:37:32;;;;;;;64.60;32.22;;;;;;;;;;5039761;28;20171;-85
2021/10/25 05:39:58;;;;;;;44.75;24.70;;;;;;;;;;5039658;28;20029;-84
2021/10/25 05:42:25;;;;;;;37.17;20.98;;;;;;;;;;5039666;28;20033;-84
2021/10/25 05:44:51;;;;;;;39.67;22.00;;;;;;;;;;5022129;28;20297;-84
2021/10/25 05:47:17;;;;;;;183.80;79.13;;;;;;;;;;5021568;28;20336;-84
2021/10/25 05:49:43;;;;;;;298.65;105.78;;;;;;;;;;5039323;28;20037;-85
2021/10/25 05:52:10;;;;;;;316.73;119.80;;;;;;;;;;5039797;28;20145;-83
2021/10/25 05:54:36;;;;;;;193.38;87.40;;;;;;;;;;5039532;28;20025;-84
2021/10/25 05:57:02;;;;;;;226.73;131.50;;;;;;;;;;5021229;28;20435;-87
2021/10/25 05:59:31;;;;;;;103.32;57.47;;;;;;;;;;5021967;28;20029;-85
2021/10/25 06:02:07;;;;;;;55.05;31.10;;;;;;;;;;5021760;28;20044;-85
2021/10/25 06:04:34;;;;;;;62.85;32.70;;;;;;;;;;5025079;28;20029;-84
2021/10/25 06:07:00;;;;;;;56.92;29.60;;;;;;;;;;5024910;28;20025;-82
2021/10/25 06:09:28;;;;;;;36.70;20.77;;;;;;;;;;5038959;28;20028;-83
2021/10/25 06:11:54;;;;;;;35.25;18.30;;;;;;;;;;5039121;28;20040;-83
2021/10/25 06:14:28;;;;;;;25.20;16.25;;;;;;;;;;5038673;28;20053;-84
2021/10/25 06:16:59;;;;;;;22.20;13.85;;;;;;;;;;5039118;28;20041;-85
2021/10/25 06:19:25;;;;;;;25.35;13.23;;;;;;;;;;5038808;28;20025;-85
2021/10/25 06:21:52;;;;;;;28.83;15.52;;;;;;;;;;5038843;28;20026;-85
2021/10/25 06:24:18;;;;;;;28.27;15.52;;;;;;;;;;5038658;28;20028;-84
2021/10/25 06:26:44;;;;;;;26.20;14.93;;;;;;;;;;5021083;28;20453;-84
2021/10/25 06:29:11;;;;;;;26.33;15.18;;;;;;;;;;5021412;28;20880;-85
2021/10/25 06:31:37;;;;;;;25.30;13.30;;;;;;;;;;5038864;28;20029;-85
2021/10/25 06:34:08;;;;;;;28.20;12.88;;;;;;;;;;5038633;28;20036;-84
2021/10/25 06:36:35;;;;;;;37.65;14.57;;;;;;;;;;5038306;28;20045;-84
2021/10/25 06:39:13;;;;;;;55.38;15.23;;;;;;;;;;5020677;28;20335;-84
2021/10/25 06:41:39;;;;;;;27.25;13.60;;;;;;;;;;5038753;28;20347;-84
2021/10/25 06:44:06;;;;;;;25.90;14.57;;;;;;;;;;5021093;28;20021;-84
2021/10/25 06:46:32;;;;;;;20.70;13.45;;;;;;;;;;5038846;28;20025;-84
2021/10/25 06:49:00;;;;;;;26.58;14.35;;;;;;;;;;5038418;28;20021;-83
2021/10/25 06:51:26;;;;;;;23.90;14.85;;;;;;;;;;5038192;28;20049;-83
2021/10/25 06:53:52;;;;;;;18.63;12.50;;;;;;;;;;5038351;28;20029;-84
2021/10/25 06:56:19;;;;;;;24.23;15.18;;;;;;;;;;5038278;28;20076;-84
2021/10/25 06:58:45;;;;;;;20.98;11.68;;;;;;;;;;5038221;28;20025;-84
2021/10/25 07:01:11;;;;;;;22.02;12.80;;;;;;;;;;5037725;28;20038;-84
2021/10/25 07:03:37;;;;;;;20.10;12.50;;;;;;;;;;5037964;28;20021;-83
2021/10/25 07:06:04;;;;;;;27.60;14.77;;;;;;;;;;5020026;28;20029;-84
2021/10/25 07:08:32;;;;;;;22.52;12.52;;;;;;;;;;5020512;28;20491;-83
2021/10/25 07:10:59;;;;;;;20.15;11.02;;;;;;;;;;5037913;28;20033;-84
2021/10/25 07:13:25;;;;;;;25.33;11.32;;;;;;;;;;5038073;28;20396;-84
2021/10/25 07:16:05;;;;;;;31.65;11.93;;;;;;;;;;5038271;28;20067;-83
2021/10/25 08:07:51;;;;;;;25.77;13.98;;;;;;;;;;5037517;28;20036;-85
2021/10/25 08:10:29;;;;;;;23.60;14.77;;;;;;;;;;5037145;28;20327;-84
2021/10/25 08:12:58;;;;;;;25.70;14.85;;;;;;;;;;5019826;28;20057;-84
2021/10/25 08:15:32;;;;;;;28.70;15.77;;;;;;;;;;5036951;28;20030;-82
2021/10/25 08:18:00;;;;;;;29.73;16.38;;;;;;;;;;5036864;28;20394;-84
2021/10/25 08:20:26;;;;;;;25.83;15.13;;;;;;;;;;5018997;28;20446;-84
2021/10/25 08:22:52;;;;;;;28.35;16.33;;;;;;;;;;5018903;28;20041;-84
2021/10/25 08:25:19;;;;;;;29.67;15.45;;;;;;;;;;5037287;28;20025;-83
2021/10/25 08:27:45;;;;;;;27.52;16.40;;;;;;;;;;5019404;28;20026;-84
2021/10/25 08:30:13;;;;;;;26.35;15.80;;;;;;;;;;5018598;28;20061;-83
2021/10/25 08:40:27;;;;;;;31.50;17.48;;;;;;;;;;5037222;28;20056;-83
2021/10/25 08:42:53;;;;;;;25.70;15.70;;;;;;;;;;5018722;28;20033;-84
2021/10/25 08:45:28;;;;;;;32.38;15.35;;;;;;;;;;5037017;28;20017;-84
2021/10/25 08:48:01;;;;;;;28.20;14.93;;;;;;;;;;5040001;28;20044;-84
2021/10/25 08:50:33;;;;;;;26.85;16.45;;;;;;;;;;5040926;28;20030;-83
2021/10/25 08:53:00;;;;;;;36.55;17.20;;;;;;;;;;5040672;28;20046;-83
2021/10/25 08:55:26;;;;;;;25.70;15.63;;;;;;;;;;5040738;28;20063;-83
2021/10/25 08:57:52;;;;;;;26.13;15.32;;;;;;;;;;5022711;28;20025;-83
2021/10/25 09:00:21;;;;;;;25.92;16.23;;;;;;;;;;5040249;28;20040;-83
2021/10/25 09:03:06;;;;;;;27.23;17.08;;;;;;;;;;5040578;28;20037;-84
2021/10/25 09:05:32;;;;;;;27.50;15.00;;;;;;;;;;5040642;28;20464;-84
2021/10/25 09:08:04;;;;;;;24.85;15.25;;;;;;;;;;5022988;28;20017;-84
2021/10/25 09:10:43;;;;;;;30.83;17.65;;;;;;;;;;5040487;28;20032;-83
2021/10/25 09:13:13;;;;;;;28.80;18.13;;;;;;;;;;5040248;28;20029;-85
2021/10/25 09:15:40;;;;;;;28.45;15.48;;;;;;;;;;5040233;28;20393;-83
2021/10/25 09:18:07;;;;;;;31.98;17.10;;;;;;;;;;5039982;28;20040;-85
2021/10/25 09:20:41;;;;;;;27.10;16.35;;;;;;;;;;5022806;28;20104;-84
2021/10/25 09:23:08;;;;;;;32.63;16.95;;;;;;;;;;5040501;28;20029;-84
2021/10/25 09:25:36;;;;;;;26.38;16.08;;;;;;;;;;5040471;28;20017;-85
2021/10/25 09:28:08;;;;;;;23.92;15.68;;;;;;;;;;5040507;28;20049;-85
2021/10/25 09:30:40;;;;;;;23.90;14.93;;;;;;;;;;5040416;28;20029;-85
2021/10/25 09:33:07;;;;;;;22.42;14.38;;;;;;;;;;5040034;28;20030;-84
2021/10/25 09:35:45;;;;;;;27.90;14.57;;;;;;;;;;5039707;28;20072;-83
2021/10/25 09:38:26;;;;;;;27.63;15.43;;;;;;;;;;5023762;28;20052;-84
2021/10/25 09:43:46;;;;;;;28.63;16.60;;;;;;;;;;5039672;28;20080;-83
2021/10/25 09:51:07;;;;;;;32.45;18.30;;;;;;;;;;5039677;28;20030;-83
2021/10/25 09:53:37;;;;;;;22.83;13.60;;;;;;;;;;5039327;28;20104;-83
2021/10/25 09:56:05;;;;;;;22.23;12.98;;;;;;;;;;5021954;28;20025;-83
2021/10/25 09:58:46;;;;;;;19.73;12.75;;;;;;;;;;5021206;28;20328;-83
2021/10/25 10:01:14;;;;;;;25.38;15.77;;;;;;;;;;5039786;28;20025;-83
2021/10/25 10:04:17;;;;;;;21.50;12.32;;;;;;;;;;5039459;28;20508;-84
2021/10/25 10:06:43;;;;;;;20.73;12.38;;;;;;;;;;5021021;28;20125;-83
2021/10/25 10:09:09;;;;;;;21.20;12.65;;;;;;;;;;5039187;28;20026;-83
2021/10/25 10:11:36;;;;;;;24.27;13.63;;;;;;;;;;5039151;28;20408;-83
2021/10/25 10:14:02;;;;;;;26.65;14.20;;;;;;;;;;5039108;28;20412;-83
2021/10/25 10:16:29;;;;;;;25.50;13.88;;;;;;;;;;5021488;28;20032;-83
2021/10/25 10:18:56;;;;;;;23.55;12.70;;;;;;;;;;5039108;28;20021;-83
2021/10/25 10:21:23;;;;;;;23.52;13.88;;;;;;;;;;5039003;28;20067;-83
2021/10/25 10:23:54;;;;;;;25.45;14.60;;;;;;;;;;5039105;28;20083;-83
2021/10/25 10:26:21;;;;;;;18.42;11.77;;;;;;;;;;5021386;28;20030;-83
2021/10/25 10:28:49;;;;;;;19.23;11.52;;;;;;;;;;5020553;28;20041;-83
2021/10/25 10:31:15;;;;;;;19.08;10.40;;;;;;;;;;5021233;28;20032;-83
2021/10/25 10:33:54;;;;;;;21.30;12.20;;;;;;;;;;5038986;28;20088;-83
2021/10/25 10:36:22;;;;;;;22.23;11.95;;;;;;;;;;5038476;28;20058;-83
2021/10/25 10:38:49;;;;;;;19.23;11.55;;;;;;;;;;5020805;28;20021;-83
2021/10/25 10:41:17;;;;;;;17.05;9.95;;;;;;;;;;5038382;28;20124;-83
2021/10/25 10:43:54;;;;;;;21.55;10.88;;;;;;;;;;5020912;28;20017;-83
2021/10/25 10:46:21;;;;;;;17.35;9.77;;;;;;;;;;5038684;28;20033;-84
2021/10/25 10:48:55;;;;;;;18.80;10.45;;;;;;;;;;5020833;28;20029;-83
2021/10/25 10:51:25;;;;;;;22.10;10.13;;;;;;;;;;5038485;28;20400;-84
2021/10/25 10:54:00;;;;;;;18.05;10.02;;;;;;;;;;5038566;28;20028;-83
2021/10/25 10:56:35;;;;;;;18.42;10.23;;;;;;;;;;5020176;28;20368;-84
2021/10/25 11:01:30;;;;;;;21.83;11.00;;;;;;;;;;5038088;28;20302;-84
2021/10/25 11:04:04;;;;;;;18.48;11.68;;;;;;;;;;5038424;28;20022;-83
2021/10/25 11:06:31;;;;;;;23.75;11.88;;;;;;;;;;5038264;28;20089;-83
2021/10/25 11:08:57;;;;;;;19.95;11.23;;;;;;;;;;5020016;28;20112;-83
2021/10/25 11:11:24;;;;;;;20.33;11.60;;;;;;;;;;5037386;28;20035;-83
2021/10/25 11:14:01;;;;;;;20.40;11.73;;;;;;;;;;5038032;28;20399;-83
2021/10/25 11:16:44;;;;;;;21.15;13.27;;;;;;;;;;5038014;28;20029;-83
2021/10/25 11:19:47;;;;;;;19.92;10.35;;;;;;;;;;5019966;28;20048;-83
2021/10/25 11:22:23;;;;;;;16.92;9.05;;;;;;;;;;5037857;28;20408;-83
2021/10/25 11:24:56;;;;;;;22.92;11.13;;;;;;;;;;5037975;28;20026;-84
2021/10/25 11:27:23;;;;;;;;;;;;;;;;;;5038172;28;20462;-84
2021/10/25 11:29:49;;;;;;;25.50;11.70;;;;;;;;;;5020101;28;19948;-83
2021/10/25 11:32:15;;;;;;;22.92;11.57;;;;;;;;;;5037814;28;20025;-84
2021/10/25 11:35:00;;;;;;;19.67;10.35;;;;;;;;;;5037458;28;20030;-84
2021/10/25 11:37:27;;;;;;;16.75;9.02;;;;;;;;;;5037529;28;20451;-83
2021/10/25 11:40:09;;;;;;;15.63;9.38;;;;;;;;;;5037722;28;20052;-84
2021/10/25 11:42:40;;;;;;;20.38;11.30;;;;;;;;;;5019511;28;20334;-84
2021/10/25 11:45:17;;;;;;;16.95;9.55;;;;;;;;;;5037593;28;20017;-84
2021/10/25 11:47:45;;;;;;;20.10;9.00;;;;;;;;;;5037870;28;20030;-83
2021/10/25 11:50:18;;;;;;;14.70;7.80;;;;;;;;;;5037311;28;20087;-83
2021/10/25 11:52:58;;;;;;;14.65;7.32;;;;;;;;;;5037545;28;20324;-84
2021/10/25 11:55:27;;;;;;;14.77;8.65;;;;;;;;;;5019904;28;20022;-84
2021/10/25 11:57:54;;;;;;;14.70;8.38;;;;;;;;;;5037315;28;20039;-83
2021/10/25 12:00:29;;;;;;;12.02;6.85;;;;;;;;;;5037606;28;20108;-82
2021/10/25 12:02:56;;;;;;;9.90;6.38;;;;;;;;;;5020332;28;20041;-86
2021/10/25 12:05:24;;;;;;;12.63;6.82;;;;;;;;;;5036902;28;20026;-77
2021/10/25 12:07:54;;;;;;;19.13;8.10;;;;;;;;;;5036962;28;20329;-77
2021/10/25 12:10:21;;;;;;;10.23;6.47;;;;;;;;;;5036890;28;20105;-77
2021/10/25 12:12:50;;;;;;;10.25;6.35;;;;;;;;;;5019439;28;20026;-77
2021/10/25 12:15:18;;;;;;;11.57;6.57;;;;;;;;;;5037041;28;20030;-77
2021/10/25 12:17:45;;;;;;;14.82;6.93;;;;;;;;;;5037114;28;20029;-77
2021/10/25 12:20:11;;;;;;;10.23;6.68;;;;;;;;;;5018281;28;20039;-78
2021/10/25 12:22:40;;;;;;;9.77;6.00;;;;;;;;;;5039433;28;20037;-77
2021/10/25 12:25:07;;;;;;;13.75;6.18;;;;;;;;;;5040963;28;20022;-77
2021/10/25 12:27:39;;;;;;;12.70;6.75;;;;;;;;;;5040650;28;20052;-78
2021/10/25 12:30:06;;;;;;;;;;;;;;;;;;5041235;28;20424;-77
2021/10/25 12:32:33;;;;;;;10.43;7.22;;;;;;;;;;5040948;28;19912;-77
2021/10/25 12:34:59;;;;;;;11.85;5.95;;;;;;;;;;5040447;28;20068;-77
2021/10/25 12:37:26;;;;;;;9.52;5.30;;;;;;;;;;5040536;28;20042;-80
2021/10/25 12:39:53;;;;;;;10.18;5.30;;;;;;;;;;5040851;28;20084;-80
2021/10/25 12:42:20;;;;;;;12.57;7.07;;;;;;;;;;5040661;28;20029;-80
2021/10/25 12:44:48;;;;;;;17.52;7.35;;;;;;;;;;5040487;28;20028;-79
2021/10/25 12:47:16;;;;;;;10.27;5.95;;;;;;;;;;5040658;28;20419;-80
2021/10/25 12:49:49;;;;;;;8.75;5.22;;;;;;;;;;5040266;28;20053;-79
2021/10/25 12:52:16;;;;;;;9.77;5.40;;;;;;;;;;5022133;28;20112;-79
2021/10/25 12:54:42;;;;;;;7.28;4.78;;;;;;;;;;5040350;28;20418;-80
2021/10/25 12:57:22;;;;;;;11.98;6.85;;;;;;;;;;5040280;28;20037;-80
2021/10/25 13:00:08;;;;;;;18.13;7.03;;;;;;;;;;5021331;28;20037;-80
2021/10/25 13:02:43;;;;;;;14.07;6.97;;;;;;;;;;5040038;28;20420;-80
2021/10/25 13:05:12;;;;;;;13.55;6.95;;;;;;;;;;5040330;28;20029;-81
2021/10/25 13:07:43;;;;;;;8.48;5.35;;;;;;;;;;5040233;28;20087;-80
2021/10/25 13:10:10;;;;;;;15.90;6.35;;;;;;;;;;5040276;28;20108;-81
2021/10/25 13:12:36;;;;;;;12.30;5.85;;;;;;;;;;5039975;28;20045;-81
2021/10/25 13:15:02;;;;;;;13.35;6.47;;;;;;;;;;5039946;28;20032;-81
2021/10/25 13:17:28;;;;;;;14.55;6.35;;;;;;;;;;5040057;28;20022;-81
2021/10/25 13:19:54;;;;;;;10.00;5.63;;;;;;;;;;5021558;28;20040;-81
2021/10/25 13:22:20;;;;;;;12.52;6.22;;;;;;;;;;5021647;28;20087;-80
2021/10/25 13:24:47;;;;;;;12.43;5.68;;;;;;;;;;5039796;28;20032;-81
2021/10/25 13:27:13;;;;;;;13.68;6.47;;;;;;;;;;5021344;28;20033;-81
2021/10/25 13:29:39;;;;;;;11.10;6.50;;;;;;;;;;5039693;28;20026;-81
2021/10/25 13:32:05;;;;;;;16.35;7.25;;;;;;;;;;5039294;28;20033;-81
2021/10/25 13:34:32;;;;;;;22.10;7.53;;;;;;;;;;5038065;28;20033;-80
2021/10/25 13:36:58;;;;;;;11.80;7.05;;;;;;;;;;5021611;28;20362;-80
2021/10/25 13:39:25;;;;;;;15.35;8.45;;;;;;;;;;5039005;28;20071;-81
2021/10/25 13:41:53;;;;;;;12.65;7.68;;;;;;;;;;5038395;28;20034;-82
2021/10/25 13:44:19;;;;;;;17.80;7.50;;;;;;;;;;5022377;28;20030;-80
2021/10/25 13:46:45;;;;;;;15.18;6.65;;;;;;;;;;5038032;28;20297;-80
2021/10/25 13:49:11;;;;;;;21.58;6.07;;;;;;;;;;5039191;28;20025;-80
2021/10/25 13:51:37;;;;;;;14.70;6.72;;;;;;;;;;5039067;28;20026;-81
2021/10/25 13:54:05;;;;;;;18.13;8.30;;;;;;;;;;5039359;28;20033;-81
2021/10/25 13:56:31;;;;;;;14.63;9.30;;;;;;;;;;5039263;28;20033;-81
2021/10/25 13:58:58;;;;;;;14.90;8.65;;;;;;;;;;5039247;28;20071;-81
2021/10/25 14:01:24;;;;;;;26.92;14.50;;;;;;;;;;5038937;28;20080;-81
2021/10/25 14:03:51;;;;;;;19.35;9.43;;;;;;;;;;5038992;28;20021;-81
2021/10/25 14:06:23;;;;;;;18.42;9.45;;;;;;;;;;5039036;28;20021;-80
2021/10/25 14:08:50;;;;;;;21.90;10.77;;;;;;;;;;5039218;28;20041;-81
2021/10/25 14:11:17;;;;;;;20.92;10.02;;;;;;;;;;5039082;28;20022;-81
2021/10/25 14:18:46;;;;;;;52.13;17.73;;;;;;;;;;5039286;28;20033;-81
2021/10/25 14:21:15;;;;;;;96.05;38.00;;;;;;;;;;5038866;28;20470;-81
2021/10/25 14:23:45;;;;;;;36.60;11.23;;;;;;;;;;5038503;28;20029;-80
2021/10/25 14:26:12;;;;;;;25.05;11.52;;;;;;;;;;5038748;28;20281;-81
2021/10/25 14:28:40;;;;;;;127.40;17.52;;;;;;;;;;5038836;28;20030;-81
2021/10/25 14:31:08;;;;;;;25.85;10.10;;;;;;;;;;5038604;28;20021;-81
2021/10/25 14:33:35;;;;;;;19.85;9.73;;;;;;;;;;5020165;28;20052;-81
2021/10/25 14:36:02;;;;;;;30.52;8.48;;;;;;;;;;5038753;28;20061;-85
2021/10/25 14:44:12;;;;;;;18.13;9.00;;;;;;;;;;5039199;28;20439;-85
2021/10/25 14:55:11;;;;;;;18.00;9.00;;;;;;;;;;5039717;28;20093;-85
2021/10/25 14:57:37;;;;;;;21.60;9.38;;;;;;;;;;5038857;28;20427;-85
2021/10/25 15:00:04;;;;;;;32.25;11.52;;;;;;;;;;5039024;28;20116;-85
2021/10/25 15:02:30;;;;;;;18.92;8.43;;;;;;;;;;5039014;28;20021;-85
2021/10/25 15:04:59;;;;;;;23.83;7.30;;;;;;;;;;5039335;28;20029;-84
2021/10/25 15:07:25;;;;;;;20.15;6.88;;;;;;;;;;5037437;28;20356;-85
2021/10/25 15:09:52;;;;;;;20.25;7.03;;;;;;;;;;5038429;28;20036;-85
2021/10/25 15:12:21;;;;;;;26.80;7.47;;;;;;;;;;5038314;28;20025;-85
2021/10/25 15:14:48;;;;;;;15.90;7.43;;;;;;;;;;5038400;28;20029;-84
2021/10/25 15:17:14;;;;;;;25.60;10.40;;;;;;;;;;5038471;28;20037;-85
2021/10/25 15:19:41;;;;;;;22.35;9.65;;;;;;;;;;5020060;28;20041;-84
2021/10/25 15:22:08;;;;;;;20.13;10.27;;;;;;;;;;5037026;28;20025;-85
2021/10/25 15:24:38;;;;;;;18.38;10.43;;;;;;;;;;5038481;28;20032;-84
2021/10/25 15:27:04;;;;;;;38.25;11.02;;;;;;;;;;5038195;28;20014;-84
2021/10/25 15:29:30;;;;;;;13.52;8.30;;;;;;;;;;5037990;28;20029;-84
2021/10/25 15:31:56;;;;;;;16.35;7.57;;;;;;;;;;5038559;28;20070;-85
2021/10/25 15:34:23;;;;;;;13.10;7.28;;;;;;;;;;5038215;28;20026;-84
2021/10/25 15:36:49;;;;;;;16.85;7.13;;;;;;;;;;5037817;28;20045;-85
2021/10/25 15:39:15;;;;;;;13.05;6.70;;;;;;;;;;5038443;28;20087;-85
2021/10/25 15:41:41;;;;;;;13.30;6.72;;;;;;;;;;5036764;28;20037;-85
2021/10/25 15:44:07;;;;;;;18.77;8.00;;;;;;;;;;5038096;28;20044;-84
2021/10/25 15:46:33;;;;;;;21.60;10.23;;;;;;;;;;5036374;28;20040;-84
2021/10/25 15:48:59;;;;;;;17.45;10.48;;;;;;;;;;5037624;28;20301;-85
2021/10/25 15:51:26;;;;;;;19.10;10.27;;;;;;;;;;5020033;28;20031;-85
2021/10/25 15:53:53;;;;;;;20.02;12.73;;;;;;;;;;5037512;28;20093;-85
2021/10/25 15:56:19;;;;;;;22.95;11.82;;;;;;;;;;5036976;28;20193;-84
2021/10/25 15:58:46;;;;;;;20.20;10.30;;;;;;;;;;5037500;28;20041;-84
2021/10/25 16:01:12;;;;;;;16.80;8.38;;;;;;;;;;5037419;28;20371;-85
2021/10/25 16:03:38;;;;;;;17.90;9.43;;;;;;;;;;5037677;28;20017;-84
2021/10/25 16:06:41;;;;;;;16.80;10.00;;;;;;;;;;5036170;28;20098;-88
2021/10/25 16:09:07;;;;;;;21.58;11.75;;;;;;;;;;5019950;28;20028;-85
2021/10/25 16:11:35;;;;;;;27.63;12.00;;;;;;;;;;5019817;28;20022;-85
2021/10/25 16:14:01;;;;;;;27.73;13.50;;;;;;;;;;5037288;28;20033;-85
2021/10/25 16:16:27;;;;;;;31.77;13.38;;;;;;;;;;5019188;28;20057;-84
2021/10/25 16:18:54;;;;;;;27.40;12.77;;;;;;;;;;5037368;28;20032;-84
2021/10/25 16:21:20;;;;;;;32.15;14.60;;;;;;;;;;5037132;28;20028;-84
2021/10/25 16:23:47;;;;;;;27.27;11.95;;;;;;;;;;5019058;28;20091;-84
2021/10/25 16:26:13;;;;;;;26.20;12.40;;;;;;;;;;5037380;28;20022;-84
2021/10/25 16:28:39;;;;;;;22.02;11.10;;;;;;;;;;5037293;28;20064;-84
2021/10/25 16:31:05;;;;;;;23.95;11.52;;;;;;;;;;5037322;28;20024;-84
2021/10/25 16:33:33;;;;;;;21.20;10.57;;;;;;;;;;5036671;28;20053;-85
2021/10/25 16:35:59;;;;;;;19.48;9.77;;;;;;;;;;5018858;28;20371;-83
2021/10/25 16:38:26;;;;;;;19.85;8.77;;;;;;;;;;5036408;28;20040;-83
2021/10/25 16:40:52;;;;;;;15.65;8.48;;;;;;;;;;5036934;28;20420;-83
2021/10/25 16:43:20;;;;;;;13.00;7.75;;;;;;;;;;5036677;28;20033;-83
2021/10/25 16:45:49;;;;;;;15.90;8.32;;;;;;;;;;5036128;28;20026;-83
2021/10/25 16:48:18;;;;;;;14.82;8.70;;;;;;;;;;5036998;28;20026;-84